Time;durP1;ratioP1;P1;durP2;ratioP2;P2;SDS_P1;SDS_P2;PMS_P1;PMS_P2;Temp;Humidity;BMP_temperature;BMP_pressure;BME280_temperature;BME280_humidity;BME280_pressure;Samples;Min_cycle;Max_cycle;Signal;HPM_P1;HPM_P2
2021/09/11 01:58:58;;;;;;;24.67;17.60;;;;;;;13.44;68.14;100441.00;1756748;80;21530;-75
2021/09/11 02:01:26;;;;;;;22.75;17.15;;;;;;;13.45;68.16;100442.67;1754864;80;21051;-73
2021/09/11 02:03:54;;;;;;;25.02;17.35;;;;;;;13.45;68.13;100443.17;1770202;80;20941;-74
2021/09/11 02:06:22;;;;;;;25.68;17.12;;;;;;;13.42;68.05;100436.33;1759612;80;20949;-74
2021/09/11 02:08:49;;;;;;;23.92;17.23;;;;;;;13.39;68.06;100434.42;1753130;80;22252;-74
2021/09/11 02:11:15;;;;;;;23.45;17.40;;;;;;;13.35;68.14;100433.03;1769831;80;20968;-74
2021/09/11 02:13:43;;;;;;;29.90;17.60;;;;;;;13.28;68.26;100427.92;1770271;80;20979;-74
2021/09/11 02:16:11;;;;;;;24.65;17.07;;;;;;;13.24;68.29;100429.19;1747670;82;20984;-75
2021/09/11 02:18:37;;;;;;;24.98;17.25;;;;;;;13.20;68.42;100430.42;1747789;82;21064;-74
2021/09/11 02:21:05;;;;;;;24.80;17.35;;;;;;;13.16;68.53;100433.32;1747672;82;20980;-74
2021/09/11 02:23:32;;;;;;;22.62;16.97;;;;;;;13.14;68.67;100431.30;1751198;80;20932;-74
2021/09/11 02:25:58;;;;;;;22.35;17.37;;;;;;;13.12;68.77;100435.91;1748802;80;20992;-75
2021/09/11 02:28:24;;;;;;;24.43;17.60;;;;;;;13.10;68.83;100429.87;1776669;80;20937;-74
2021/09/11 02:30:52;;;;;;;23.40;17.45;;;;;;;13.08;68.89;100433.16;1778294;80;21035;-74
2021/09/11 02:33:18;;;;;;;26.15;18.17;;;;;;;13.07;69.02;100434.14;1756150;80;22172;-74
2021/09/11 02:35:45;;;;;;;24.80;17.85;;;;;;;13.07;69.06;100436.79;1770458;80;20945;-74
2021/09/11 02:38:12;;;;;;;24.27;17.60;;;;;;;13.05;69.09;100432.61;1707957;84;21457;-74
2021/09/11 02:40:40;;;;;;;25.23;17.60;;;;;;;13.03;69.10;100439.38;1707921;84;21508;-74
2021/09/11 02:43:08;;;;;;;24.63;18.52;;;;;;;13.03;69.10;100438.05;1708669;84;21017;-74
2021/09/11 02:45:34;;;;;;;23.57;17.67;;;;;;;13.03;69.04;100439.38;1709148;82;22835;-74
2021/09/11 02:48:03;;;;;;;27.02;18.52;;;;;;;13.01;69.02;100438.65;1709333;84;20969;-74
2021/09/11 02:50:30;;;;;;;22.42;17.48;;;;;;;12.99;68.97;100439.77;1739045;82;21492;-74
2021/09/11 02:52:56;;;;;;;28.55;18.17;;;;;;;12.97;69.02;100437.26;1714570;83;21464;-74
2021/09/11 02:55:23;;;;;;;24.90;17.98;;;;;;;12.93;69.02;100438.48;1736074;82;20958;-74
2021/09/11 02:57:50;;;;;;;25.55;18.37;;;;;;;12.89;69.07;100441.91;1778381;80;22177;-74
2021/09/11 03:00:18;;;;;;;25.17;18.65;;;;;;;12.87;69.08;100441.20;1775252;80;21019;-74
2021/09/11 03:02:46;;;;;;;26.05;17.87;;;;;;;12.84;69.09;100441.97;1771579;80;20938;-74
2021/09/11 03:05:12;;;;;;;25.80;18.12;;;;;;;12.81;69.15;100443.55;1756996;80;20949;-74
2021/09/11 03:07:40;;;;;;;24.43;18.32;;;;;;;12.78;69.16;100443.83;1745295;80;20972;-74
2021/09/11 03:10:07;;;;;;;28.45;17.67;;;;;;;12.74;69.20;100443.72;1724205;82;22155;-74
2021/09/11 03:12:34;;;;;;;25.48;18.30;;;;;;;12.72;69.30;100440.37;1744408;80;20988;-75
2021/09/11 03:15:00;;;;;;;27.93;18.27;;;;;;;12.69;69.31;100442.81;1748088;80;21066;-74
2021/09/11 03:17:26;;;;;;;26.10;18.87;;;;;;;12.66;69.33;100441.77;1736860;80;21027;-74
2021/09/11 03:19:54;;;;;;;24.67;18.05;;;;;;;12.61;69.34;100440.82;1744423;82;21407;-74
2021/09/11 03:22:21;;;;;;;25.30;18.52;;;;;;;12.59;69.39;100444.09;1744402;82;22621;-74
2021/09/11 03:24:48;;;;;;;27.98;18.90;;;;;;;12.57;69.38;100446.05;1760344;80;20988;-74
2021/09/11 03:27:14;;;;;;;24.35;17.67;;;;;;;12.54;69.44;100446.30;1755035;80;20929;-74
2021/09/11 03:29:42;;;;;;;25.32;18.40;;;;;;;12.51;69.50;100441.75;1724763;82;20985;-74
2021/09/11 03:32:08;;;;;;;25.02;18.27;;;;;;;12.49;69.63;100441.89;1744356;81;20988;-74
2021/09/11 03:34:34;;;;;;;25.17;18.62;;;;;;;12.48;69.71;100442.87;1750027;80;21780;-75
2021/09/11 03:37:03;;;;;;;24.37;18.92;;;;;;;12.50;69.79;100445.38;1758654;80;20933;-74
2021/09/11 03:39:29;;;;;;;27.45;18.87;;;;;;;12.50;69.81;100449.35;1749736;80;21032;-74
2021/09/11 03:41:55;;;;;;;27.60;18.77;;;;;;;12.49;69.91;100444.55;1744524;80;21059;-74
2021/09/11 03:44:22;;;;;;;29.40;19.42;;;;;;;12.51;69.97;100447.05;1748098;80;20980;-74
2021/09/11 03:46:48;;;;;;;24.10;17.92;;;;;;;12.50;70.07;100446.22;1772123;80;21788;-74
2021/09/11 03:49:14;;;;;;;27.15;17.77;;;;;;;12.47;70.13;100445.17;1752686;80;20965;-74
2021/09/11 03:51:41;;;;;;;27.32;19.48;;;;;;;12.48;70.25;100445.52;1753061;80;20999;-74
2021/09/11 03:54:07;;;;;;;25.50;18.30;;;;;;;12.50;70.32;100444.05;1751067;79;20997;-74
2021/09/11 03:56:35;;;;;;;24.47;18.23;;;;;;;12.54;70.31;100440.99;1748569;80;21146;-74
2021/09/11 03:59:01;;;;;;;27.87;18.55;;;;;;;12.57;70.32;100447.86;1733645;82;21815;-74
2021/09/11 04:01:29;;;;;;;25.77;18.57;;;;;;;12.57;70.39;100442.08;1759980;80;21487;-74
2021/09/11 04:03:56;;;;;;;23.83;18.77;;;;;;;12.59;70.43;100440.61;1730470;82;21044;-74
2021/09/11 04:06:24;;;;;;;26.25;19.20;;;;;;;12.60;70.38;100444.94;1764300;80;21058;-74
2021/09/11 04:08:50;;;;;;;22.75;18.15;;;;;;;12.60;70.40;100448.42;1770812;80;21032;-74
2021/09/11 04:11:18;;;;;;;26.45;18.17;;;;;;;12.59;70.61;100449.39;1765873;80;20941;-74
2021/09/11 04:13:46;;;;;;;26.57;19.07;;;;;;;12.60;70.66;100451.07;1755008;80;21024;-74
2021/09/11 04:16:13;;;;;;;24.02;18.32;;;;;;;12.64;70.72;100451.63;1768001;80;21139;-74
2021/09/11 04:18:41;;;;;;;24.95;18.30;;;;;;;12.69;70.75;100454.73;1766561;80;21000;-74
2021/09/11 04:21:09;;;;;;;24.85;18.67;;;;;;;12.72;70.82;100458.44;1744516;82;21480;-73
2021/09/11 04:23:35;;;;;;;23.73;18.62;;;;;;;12.77;70.93;100458.05;1745841;80;22185;-74
2021/09/11 04:26:02;;;;;;;25.00;18.35;;;;;;;12.80;70.94;100462.59;1766374;80;20929;-74
2021/09/11 04:28:29;;;;;;;27.42;18.67;;;;;;;12.83;71.07;100454.84;1747342;80;21074;-74
2021/09/11 04:30:55;;;;;;;27.52;20.02;;;;;;;12.89;71.13;100463.59;1744739;80;20949;-74
2021/09/11 04:33:23;;;;;;;26.05;18.87;;;;;;;12.95;71.15;100464.40;1746552;80;21009;-74
2021/09/11 04:35:50;;;;;;;27.45;19.10;;;;;;;13.03;71.15;100468.55;1751560;80;21791;-75
2021/09/11 04:38:16;;;;;;;23.02;18.23;;;;;;;13.10;71.18;100464.35;1769437;80;20925;-74
2021/09/11 04:40:42;;;;;;;26.77;19.15;;;;;;;13.17;71.23;100458.87;1772596;80;20933;-74
2021/09/11 04:43:09;;;;;;;25.95;19.62;;;;;;;13.24;71.25;100459.20;1768588;80;20960;-75
2021/09/11 04:45:37;;;;;;;25.55;19.27;;;;;;;13.33;71.40;100451.75;1750008;80;21538;-74
2021/09/11 04:48:05;;;;;;;26.55;19.95;;;;;;;13.47;71.36;100449.16;1763105;79;21392;-74
2021/09/11 04:50:33;;;;;;;27.60;19.62;;;;;;;13.60;71.29;100451.05;1739341;80;20899;-75
2021/09/11 04:52:59;;;;;;;28.47;19.85;;;;;;;13.75;71.23;100448.83;1733788;82;21387;-74
2021/09/11 04:55:27;;;;;;;29.98;19.98;;;;;;;13.89;71.09;100451.03;1760160;80;21023;-74
2021/09/11 04:57:54;;;;;;;24.82;18.98;;;;;;;14.05;70.94;100459.77;1746622;80;20944;-74
2021/09/11 05:00:20;;;;;;;31.10;19.70;;;;;;;14.18;70.72;100453.66;1758781;80;21708;-74
2021/09/11 05:02:46;;;;;;;25.23;18.90;;;;;;;14.34;70.42;100453.06;1752648;82;21063;-74
2021/09/11 05:05:13;;;;;;;27.58;19.55;;;;;;;14.48;70.13;100451.33;1760673;80;20936;-75
2021/09/11 05:07:39;;;;;;;26.95;19.02;;;;;;;14.63;69.75;100450.84;1763356;80;20933;-75
2021/09/11 05:10:08;;;;;;;24.65;19.05;;;;;;;14.78;69.40;100456.03;1770197;80;20932;-74
2021/09/11 05:12:34;;;;;;;26.15;18.17;;;;;;;14.91;68.99;100450.37;1781469;80;22231;-74
2021/09/11 05:15:01;;;;;;;22.37;18.50;;;;;;;15.03;68.68;100450.01;1777757;79;20925;-74
2021/09/11 05:17:28;;;;;;;25.88;18.45;;;;;;;15.16;68.35;100445.19;1770412;80;20984;-75
2021/09/11 05:19:54;;;;;;;26.37;17.95;;;;;;;15.29;67.93;100446.15;1744140;80;20992;-74
2021/09/11 05:22:21;;;;;;;21.80;17.80;;;;;;;15.41;67.60;100447.59;1783561;80;20921;-74
2021/09/11 05:24:48;;;;;;;26.10;17.45;;;;;;;15.52;67.24;100439.88;1777838;80;22234;-74
2021/09/11 05:27:14;;;;;;;24.65;17.45;;;;;;;15.64;66.97;100451.20;1753784;80;20984;-74
2021/09/11 05:29:42;;;;;;;26.05;17.25;;;;;;;15.75;66.71;100448.29;1753319;80;20972;-74
2021/09/11 05:32:09;;;;;;;26.27;17.32;;;;;;;15.86;66.51;100446.72;1759282;80;21031;-74
2021/09/11 05:34:38;;;;;;;24.80;17.90;;;;;;;15.96;66.27;100447.46;1764822;80;20968;-74
2021/09/11 05:37:04;;;;;;;22.50;17.48;;;;;;;16.06;66.06;100443.38;1761309;80;22660;-74
2021/09/11 05:39:32;;;;;;;26.30;17.75;;;;;;;16.17;65.84;100447.61;1775677;79;20940;-74
2021/09/11 05:41:58;;;;;;;24.95;17.48;;;;;;;16.26;65.62;100441.34;1752772;80;21023;-77
2021/09/11 05:44:25;;;;;;;23.87;17.48;;;;;;;16.36;65.36;100442.57;1778143;80;20945;-74
2021/09/11 05:46:51;;;;;;;26.40;17.85;;;;;;;16.43;65.07;100435.12;1742078;82;20965;-75
2021/09/11 05:49:20;;;;;;;24.25;17.23;;;;;;;16.52;64.86;100442.17;1768143;80;21839;-79
2021/09/11 05:51:48;;;;;;;24.35;17.55;;;;;;;16.60;64.51;100444.89;1771012;80;21028;-77
2021/09/11 05:54:15;;;;;;;26.05;17.25;;;;;;;16.68;64.32;100441.91;1752724;80;20944;-80
2021/09/11 05:56:41;;;;;;;25.77;16.12;;;;;;;16.77;64.07;100447.14;1753173;80;20944;-77
2021/09/11 05:59:10;;;;;;;22.90;16.75;;;;;;;16.85;63.82;100443.69;1744660;80;21024;-78
2021/09/11 06:01:36;;;;;;;24.20;17.80;;;;;;;16.90;63.56;100440.05;1764668;80;21806;-76
2021/09/11 06:04:03;;;;;;;21.95;16.85;;;;;;;16.99;63.49;100444.42;1775051;80;21301;-77
2021/09/11 06:06:30;;;;;;;24.00;16.40;;;;;;;17.13;63.42;100443.78;1774393;79;21561;-81
2021/09/11 06:08:57;;;;;;;24.67;17.02;;;;;;;17.26;63.21;100446.48;1708753;80;21052;-75
2021/09/11 06:11:26;;;;;;;21.65;16.67;;;;;;;17.36;62.86;100443.16;1753510;80;20980;-78
2021/09/11 06:13:52;;;;;;;24.02;16.45;;;;;;;17.44;62.72;100442.68;1747655;80;21789;-74
2021/09/11 06:16:18;;;;;;;23.95;16.87;;;;;;;17.56;62.67;100443.69;1748255;80;21064;-72
2021/09/11 06:18:46;;;;;;;25.45;16.80;;;;;;;17.68;62.45;100441.89;1742689;80;21106;-73
2021/09/11 06:21:13;;;;;;;22.82;16.45;;;;;;;17.79;62.07;100436.75;1762875;80;20946;-74
2021/09/11 06:23:39;;;;;;;21.68;16.07;;;;;;;17.87;61.68;100442.09;1746782;80;21047;-74
2021/09/11 06:26:06;;;;;;;23.57;15.85;;;;;;;17.97;61.54;100438.75;1723445;82;22174;-72
2021/09/11 06:28:32;;;;;;;20.50;14.93;;;;;;;18.07;61.20;100435.91;1708120;82;21485;-72
2021/09/11 06:30:58;;;;;;;23.40;15.25;;;;;;;18.20;60.92;100436.20;1761507;80;21470;-81
2021/09/11 06:33:25;;;;;;;19.98;14.50;;;;;;;18.33;60.67;100434.84;1752809;80;20957;-75
2021/09/11 06:35:52;;;;;;;25.12;15.48;;;;;;;18.42;60.27;100440.50;1719586;82;21586;-72
2021/09/11 06:38:18;;;;;;;20.15;15.05;;;;;;;18.51;60.05;100441.65;1712880;82;22790;-77
2021/09/11 06:40:44;;;;;;;20.70;14.15;;;;;;;18.64;59.67;100441.13;1720494;82;21543;-76
2021/09/11 06:43:11;;;;;;;19.48;14.58;;;;;;;18.73;59.29;100437.45;1761554;80;21605;-77
2021/09/11 06:45:37;;;;;;;21.40;14.53;;;;;;;18.82;59.15;100445.78;1762633;80;21070;-76
2021/09/11 06:48:04;;;;;;;18.45;13.78;;;;;;;18.93;58.95;100449.08;1751208;80;20996;-77
2021/09/11 06:50:30;;;;;;;17.27;13.72;;;;;;;19.03;58.52;100441.67;1744490;80;21783;-77
2021/09/11 06:52:57;;;;;;;23.27;14.70;;;;;;;19.13;58.07;100440.95;1759944;80;21015;-80
2021/09/11 06:55:24;;;;;;;21.65;14.47;;;;;;;19.26;57.96;100443.87;1758940;80;20996;-79
2021/09/11 06:57:51;;;;;;;24.65;14.38;;;;;;;19.37;58.03;100443.47;1745696;80;21064;-79
2021/09/11 07:00:18;;;;;;;20.55;14.15;;;;;;;19.52;57.80;100445.40;1746032;80;20999;-79
2021/09/11 07:02:44;;;;;;;20.52;13.18;;;;;;;19.67;57.73;100442.29;1780680;80;21821;-79
2021/09/11 07:05:11;;;;;;;17.30;12.65;;;;;;;19.83;57.52;100448.88;1758073;80;21070;-79
2021/09/11 07:07:39;;;;;;;19.55;12.37;;;;;;;19.98;56.87;100445.73;1755029;80;20975;-79
2021/09/11 07:10:08;;;;;;;19.67;12.43;;;;;;;20.12;56.19;100448.62;1752466;80;21557;-79
2021/09/11 07:12:35;;;;;;;18.45;11.80;;;;;;;20.25;55.90;100443.45;1715168;83;21021;-79
2021/09/11 07:15:02;;;;;;;16.02;11.97;;;;;;;20.38;55.02;100445.02;1780786;80;21775;-79
2021/09/11 07:17:29;;;;;;;15.75;11.53;;;;;;;20.52;54.87;100441.53;1757035;80;21472;-78
2021/09/11 07:19:55;;;;;;;13.20;10.78;;;;;;;20.68;54.74;100438.34;1756620;80;21324;-79
2021/09/11 07:22:21;;;;;;;16.00;10.65;;;;;;;20.85;54.37;100439.82;1780440;80;21389;-80
2021/09/11 07:24:49;;;;;;;14.65;10.85;;;;;;;21.01;53.98;100442.79;1762692;80;21000;-81
2021/09/11 07:27:17;;;;;;;13.72;10.48;;;;;;;21.16;53.46;100446.30;1762002;80;21711;-78
2021/09/11 07:29:44;;;;;;;15.23;10.58;;;;;;;21.33;53.02;100439.70;1756962;80;21092;-77
2021/09/11 07:32:11;;;;;;;15.98;10.78;;;;;;;21.49;52.22;100441.30;1760239;80;21070;-80
2021/09/11 07:34:38;;;;;;;17.20;10.23;;;;;;;21.60;51.34;100438.09;1761752;80;21218;-79
2021/09/11 07:37:04;;;;;;;15.55;9.43;;;;;;;21.66;50.98;100430.63;1757670;80;21355;-75
2021/09/11 07:39:31;;;;;;;15.18;9.20;;;;;;;21.79;50.65;100435.80;1758314;80;22374;-77
2021/09/11 07:41:57;;;;;;;17.90;9.25;;;;;;;21.92;50.41;100432.73;1752223;80;21016;-77
2021/09/11 07:44:23;;;;;;;12.03;9.68;;;;;;;22.07;50.47;100432.65;1728975;82;20929;-77
2021/09/11 07:46:50;;;;;;;15.05;9.18;;;;;;;22.26;49.89;100436.00;1752412;80;21000;-77
2021/09/11 07:49:17;;;;;;;10.65;8.65;;;;;;;22.39;49.14;100437.97;1753048;80;21600;-77
2021/09/11 07:51:43;;;;;;;13.78;8.48;;;;;;;22.48;48.72;100438.62;1752211;82;22666;-77
2021/09/11 07:54:09;;;;;;;13.28;7.78;;;;;;;22.58;48.42;100432.36;1766090;80;21051;-77
2021/09/11 07:56:36;;;;;;;12.28;8.08;;;;;;;22.69;47.65;100427.79;1783276;80;20937;-76
2021/09/11 07:59:03;;;;;;;13.45;7.28;;;;;;;22.81;47.27;100424.01;1783250;80;20976;-77
2021/09/11 08:01:30;;;;;;;10.40;7.62;;;;;;;22.92;46.84;100428.84;1781184;80;20987;-77
2021/09/11 08:03:56;;;;;;;9.50;7.12;;;;;;;22.98;46.17;100429.92;1762050;79;22198;-77
2021/09/11 08:06:23;;;;;;;11.00;7.20;;;;;;;23.03;45.55;100422.88;1748439;80;21064;-77
2021/09/11 08:08:50;;;;;;;9.13;6.87;;;;;;;23.06;45.44;100417.08;1747511;82;20992;-77
2021/09/11 08:11:17;;;;;;;9.63;7.25;;;;;;;23.11;45.27;100421.88;1747525;82;21063;-77
2021/09/11 08:13:45;;;;;;;10.53;7.08;;;;;;;23.16;45.07;100425.30;1755235;80;20924;-77
2021/09/11 08:16:12;;;;;;;13.93;6.42;;;;;;;23.21;45.50;100425.02;1778354;80;22230;-77
2021/09/11 08:18:39;;;;;;;9.18;6.70;;;;;;;23.31;44.69;100424.63;1778274;80;20981;-77
2021/09/11 08:21:06;;;;;;;10.50;6.62;;;;;;;23.46;44.81;100421.77;1778383;80;21126;-77
2021/09/11 08:23:34;;;;;;;10.05;6.15;;;;;;;23.61;44.88;100417.03;1771739;80;20941;-76
2021/09/11 08:26:02;;;;;;;9.05;6.20;;;;;;;23.72;43.70;100413.72;1747564;82;20952;-76
2021/09/11 08:28:29;;;;;;;7.33;6.00;;;;;;;23.75;43.00;100414.67;1747786;82;21821;-77
2021/09/11 08:30:55;;;;;;;8.95;6.20;;;;;;;23.81;43.26;100413.00;1720110;82;20992;-76
2021/09/11 08:33:21;;;;;;;7.55;5.65;;;;;;;23.92;43.30;100414.55;1749712;80;20944;-77
2021/09/11 08:35:48;;;;;;;8.45;5.45;;;;;;;24.03;42.01;100412.27;1762920;80;21001;-77
2021/09/11 08:38:15;;;;;;;10.23;6.08;;;;;;;24.07;42.00;100402.73;1774838;80;20933;-77
2021/09/11 08:40:42;;;;;;;7.85;5.67;;;;;;;24.09;42.17;100400.13;1776754;80;21743;-77
2021/09/11 08:43:09;;;;;;;8.78;5.53;;;;;;;24.20;42.32;100395.44;1776334;80;21032;-77
2021/09/11 08:45:35;;;;;;;7.60;6.30;;;;;;;24.36;41.79;100393.37;1778324;80;20945;-76
2021/09/11 08:48:03;;;;;;;9.88;7.17;;;;;;;24.46;42.25;100393.76;1778252;79;20945;-76
2021/09/11 08:50:30;;;;;;;11.48;7.40;;;;;;;24.51;41.77;100381.78;1778360;80;20976;-76
2021/09/11 08:52:56;;;;;;;9.00;7.28;;;;;;;24.55;42.51;100383.86;1776581;80;22201;-76
2021/09/11 08:55:23;;;;;;;11.20;7.75;;;;;;;24.66;42.53;100390.47;1772614;80;20925;-76
2021/09/11 08:58:03;;;;;;;16.42;7.78;;;;;;;24.79;42.26;100389.05;1768283;80;20983;-76
2021/09/11 09:00:46;;;;;;;13.35;7.58;;;;;;;24.90;42.50;100390.28;1747468;80;20992;-76
2021/09/11 09:03:37;;;;;;;19.77;8.40;;;;;;;25.09;42.60;100386.69;1751183;80;21032;-77
2021/09/11 09:06:15;;;;;;;20.80;8.23;;;;;;;25.31;42.42;100387.69;1747546;81;21775;-77
2021/09/11 09:08:45;;;;;;;11.38;8.00;;;;;;;25.43;41.51;100383.23;1747441;82;21388;-76
2021/09/11 09:11:27;;;;;;;14.95;8.45;;;;;;;25.52;41.67;100383.27;1747086;80;21036;-76
2021/09/11 09:14:08;;;;;;;13.93;8.68;;;;;;;25.59;41.76;100377.83;1755123;80;21024;-76
2021/09/11 09:16:42;;;;;;;14.63;9.08;;;;;;;25.69;41.03;100383.57;1747678;82;20945;-76
2021/09/11 09:19:17;;;;;;;12.60;8.38;;;;;;;25.79;40.54;100374.98;1747650;82;21832;-76
2021/09/11 09:21:46;;;;;;;13.10;8.58;;;;;;;25.87;40.13;100372.02;1747766;82;20965;-76
2021/09/11 09:24:16;;;;;;;11.55;8.93;;;;;;;25.90;39.49;100372.91;1759712;80;20937;-76
2021/09/11 09:26:55;;;;;;;14.33;8.70;;;;;;;25.88;39.01;100362.84;1744709;80;20929;-76
2021/09/11 09:29:22;;;;;;;10.72;8.38;;;;;;;25.95;39.55;100364.41;1778573;80;20972;-76
2021/09/11 09:31:56;;;;;;;14.47;8.50;;;;;;;26.11;38.40;100359.48;1776854;79;21488;-76
2021/09/11 09:34:38;;;;;;;11.08;8.00;;;;;;;26.21;38.50;100361.97;1772399;79;20941;-76
2021/09/11 09:37:15;;;;;;;12.70;8.50;;;;;;;26.37;37.63;100358.38;1766314;80;20988;-76
2021/09/11 09:39:48;;;;;;;12.00;8.18;;;;;;;26.51;38.42;100348.53;1747887;82;20960;-76
2021/09/11 09:42:16;;;;;;;9.10;8.10;;;;;;;26.64;36.75;100354.34;1747761;82;20945;-76
2021/09/11 09:44:52;;;;;;;12.90;8.13;;;;;;;26.66;36.11;100358.17;1765192;80;21771;-76
2021/09/11 09:47:24;;;;;;;9.98;7.87;;;;;;;26.79;36.74;100348.51;1778573;80;20981;-76
2021/09/11 09:50:11;;;;;;;10.60;8.05;;;;;;;27.04;36.59;100356.02;1777149;79;20988;-76
2021/09/11 09:52:39;;;;;;;12.13;8.28;;;;;;;27.25;35.92;100353.31;1777645;80;21490;-76
2021/09/11 09:55:07;;;;;;;9.75;7.37;;;;;;;27.49;36.09;100350.64;1772932;80;20933;-76
2021/09/11 09:57:36;;;;;;;9.08;7.62;;;;;;;27.68;35.31;100357.66;1778476;80;22596;-76
2021/09/11 10:00:03;;;;;;;12.07;8.05;;;;;;;27.89;35.83;100358.47;1778651;80;20961;-76
2021/09/11 10:02:32;;;;;;;10.63;7.65;;;;;;;28.14;34.79;100351.41;1776457;80;20929;-76
2021/09/11 10:04:59;;;;;;;11.35;7.95;;;;;;;28.36;33.60;100344.02;1751748;79;20983;-76
2021/09/11 10:07:27;;;;;;;8.98;7.65;;;;;;;28.46;32.93;100354.57;1774713;80;20965;-76
2021/09/11 10:09:54;;;;;;;10.43;8.38;;;;;;;28.57;33.63;100352.92;1754030;80;21835;-76
2021/09/11 10:12:43;;;;;;;9.35;7.78;;;;;;;28.83;33.49;100349.33;1775060;80;21396;-76
2021/09/11 10:15:33;;;;;;;8.43;7.42;;;;;;;29.04;33.04;100353.57;1729746;82;21477;-76
2021/09/11 10:17:59;;;;;;;10.03;7.65;;;;;;;29.20;31.03;100354.69;1744709;82;20960;-76
2021/09/11 10:20:27;;;;;;;9.90;7.33;;;;;;;29.16;30.29;100354.08;1744459;82;20940;-77
2021/09/11 10:23:10;;;;;;;9.30;7.37;;;;;;;29.21;30.75;100352.79;1747769;80;21569;-76
2021/09/11 10:25:42;;;;;;;9.33;7.50;;;;;;;29.30;30.41;100345.87;1744987;80;21023;-76
2021/09/11 10:28:18;;;;;;;8.85;7.15;;;;;;;29.46;30.64;100341.00;1744674;81;20992;-76
2021/09/11 10:31:12;;;;;;;11.48;7.75;;;;;;;29.57;29.11;100338.75;1744439;82;21465;-76
2021/09/11 10:33:47;;;;;;;11.38;7.40;;;;;;;29.47;29.29;100342.64;1750534;80;21047;-76
2021/09/11 10:36:37;;;;;;;11.57;8.00;;;;;;;29.26;29.66;100338.75;1746671;79;22505;-77
2021/09/11 10:39:08;;;;;;;9.43;7.42;;;;;;;29.29;29.92;100333.34;1745197;80;20942;-77
2021/09/11 10:41:34;;;;;;;10.65;7.33;;;;;;;29.52;29.89;100332.39;1775212;80;20929;-76
2021/09/11 10:44:08;;;;;;;10.72;7.62;;;;;;;29.75;30.02;100332.77;1764730;80;20974;-76
2021/09/11 10:46:53;;;;;;;;;;;;;;;29.98;29.10;100330.38;1747046;82;20953;-75
2021/09/11 10:49:35;;;;;;;11.43;8.18;;;;;;;29.97;28.59;100326.83;1744456;82;21836;-76
2021/09/11 10:52:12;;;;;;;8.98;7.25;;;;;;;29.87;28.36;100321.23;1748600;82;21431;-76
2021/09/11 10:54:40;;;;;;;13.30;8.15;;;;;;;29.74;28.88;100312.89;1754980;80;20988;-76
2021/09/11 10:57:20;;;;;;;12.15;7.47;;;;;;;29.74;28.88;100312.89;1758271;80;39279;-76
2021/09/11 10:59:45;;;;;;;8.40;7.17;;;;;;;29.68;29.69;100313.88;1774622;80;20964;-76
2021/09/11 11:02:35;;;;;;;14.45;8.10;;;;;;;29.72;30.12;100314.19;1775065;79;21816;-76
2021/09/11 11:05:10;;;;;;;10.80;7.50;;;;;;;29.83;29.22;100313.30;1770010;80;21320;-76
2021/09/11 11:07:44;;;;;;;11.15;8.10;;;;;;;30.05;29.67;100299.17;1775131;80;21019;-76
2021/09/11 11:10:12;;;;;;;41.05;12.05;;;;;;;30.05;29.67;100299.17;1775315;80;21436;-76
2021/09/11 11:12:49;;;;;;;12.55;8.05;;;;;;;30.16;29.37;100302.34;1773371;80;20973;-77
2021/09/11 11:15:23;;;;;;;12.82;8.23;;;;;;;30.34;29.51;100299.84;1773642;80;21721;-76
2021/09/11 11:17:50;;;;;;;10.50;7.67;;;;;;;30.50;29.15;100289.96;1753497;80;20988;-77
2021/09/11 11:20:25;;;;;;;12.25;7.85;;;;;;;30.50;29.19;100288.59;1775105;80;21035;-77
2021/09/11 11:22:51;;;;;;;10.75;8.18;;;;;;;30.47;28.95;100285.82;1772860;80;21089;-77
2021/09/11 11:25:35;;;;;;;8.75;7.65;;;;;;;30.48;28.56;100286.64;1746774;80;21016;-76
2021/09/11 11:28:02;;;;;;;10.18;7.65;;;;;;;30.34;28.95;100281.31;1744509;82;21867;-77
2021/09/11 11:30:29;;;;;;;11.15;8.08;;;;;;;30.28;29.24;100280.95;1745016;80;20977;-77
2021/09/11 11:33:00;;;;;;;10.95;7.90;;;;;;;30.38;29.59;100275.63;1746271;80;21020;-77
2021/09/11 11:35:28;;;;;;;13.48;8.20;;;;;;;30.70;29.99;100283.40;1763281;80;20949;-77
2021/09/11 11:37:55;;;;;;;8.48;7.05;;;;;;;31.05;29.63;100279.35;1708603;84;20977;-77
2021/09/11 11:40:21;;;;;;;14.70;7.83;;;;;;;31.36;28.93;100287.28;1744718;82;22179;-77
2021/09/11 11:42:47;;;;;;;13.30;8.20;;;;;;;31.57;28.04;100273.27;1707172;84;21116;-77
2021/09/11 11:45:16;;;;;;;11.93;7.90;;;;;;;31.61;28.11;100280.65;1747689;80;21023;-77
2021/09/11 11:47:54;;;;;;;14.53;7.45;;;;;;;31.71;27.96;100282.62;1745386;80;20941;-77
2021/09/11 11:50:28;;;;;;;19.75;7.90;;;;;;;31.80;27.66;100272.88;1744320;82;21036;-77
2021/09/11 11:52:59;;;;;;;10.60;8.00;;;;;;;31.95;28.30;100271.34;1750948;80;22639;-77
2021/09/11 11:55:27;;;;;;;10.70;7.65;;;;;;;32.11;27.85;100264.83;1744591;81;20932;-76
2021/09/11 11:58:13;;;;;;;9.68;7.78;;;;;;;32.13;27.50;100264.84;1744516;82;21047;-75
2021/09/11 12:00:47;;;;;;;14.18;7.70;;;;;;;32.12;27.92;100261.01;1736046;82;21515;-75
2021/09/11 12:03:42;;;;;;;11.28;7.60;;;;;;;32.22;27.49;100260.23;1755752;80;20991;-75
2021/09/11 12:06:17;;;;;;;8.95;7.53;;;;;;;32.25;26.73;100252.88;1753403;80;21801;-76
2021/09/11 12:08:44;;;;;;;11.08;7.72;;;;;;;32.34;27.25;100253.49;1749256;82;20924;-76
2021/09/11 12:11:18;;;;;;;11.08;7.60;;;;;;;32.45;27.13;100249.69;1752559;81;20992;-76
2021/09/11 12:13:51;;;;;;;10.10;7.75;;;;;;;32.50;26.70;100250.78;1766769;80;20948;-76
2021/09/11 12:16:17;;;;;;;10.63;7.53;;;;;;;32.55;26.54;100247.53;1783638;80;20941;-76
2021/09/11 12:18:44;;;;;;;9.18;8.10;;;;;;;32.45;26.39;100244.77;1783389;80;21812;-76
2021/09/11 12:21:14;;;;;;;10.98;7.85;;;;;;;32.17;26.38;100248.20;1779987;80;20917;-76
2021/09/11 12:23:49;;;;;;;13.45;7.72;;;;;;;32.13;27.63;100247.63;1758921;80;21339;-76
2021/09/11 12:26:16;;;;;;;9.53;7.70;;;;;;;32.29;27.33;100243.86;1752379;82;20953;-77
2021/09/11 12:28:53;;;;;;;11.05;7.67;;;;;;;32.58;27.34;100242.06;1765079;80;20941;-77
2021/09/11 12:31:24;;;;;;;8.90;7.85;;;;;;;32.70;26.66;100240.70;1743335;82;21795;-77
2021/09/11 12:34:10;;;;;;;10.85;7.80;;;;;;;32.74;26.43;100239.63;1715537;83;21016;-77
2021/09/11 12:36:39;;;;;;;13.08;8.03;;;;;;;32.68;25.88;100237.97;1752123;80;20943;-76
2021/09/11 12:39:16;;;;;;;8.95;7.80;;;;;;;32.48;25.64;100226.45;1766069;80;20952;-77
2021/09/11 12:41:49;;;;;;;13.28;8.10;;;;;;;32.25;26.26;100235.94;1782449;80;20964;-77
2021/09/11 12:44:15;;;;;;;13.10;7.47;;;;;;;32.09;27.03;100231.50;1763704;80;21818;-77
2021/09/11 12:46:55;;;;;;;11.50;8.13;;;;;;;32.14;27.53;100224.70;1752341;81;21355;-76
2021/09/11 12:49:24;;;;;;;9.03;7.58;;;;;;;32.35;26.98;100233.27;1752384;80;20980;-77
2021/09/11 12:51:51;;;;;;;10.85;8.20;;;;;;;32.52;26.56;100234.38;1752237;80;20992;-77
2021/09/11 12:54:18;;;;;;;9.00;7.62;;;;;;;32.68;26.73;100230.59;1772283;80;20887;-77
2021/09/11 12:56:46;;;;;;;10.53;8.00;;;;;;;32.91;26.11;100229.81;1782001;79;21789;-76
2021/09/11 12:59:12;;;;;;;13.13;7.58;;;;;;;32.87;25.99;100232.28;1783427;80;21001;-77
2021/09/11 13:01:39;;;;;;;14.18;8.10;;;;;;;32.87;25.81;100232.28;1783544;80;21023;-77
2021/09/11 13:04:07;;;;;;;10.20;8.23;;;;;;;32.93;25.58;100229.83;1762199;80;21396;-77
2021/09/11 13:06:34;;;;;;;9.45;8.30;;;;;;;32.87;25.40;100225.44;1747663;80;21067;-77
2021/09/11 13:09:05;;;;;;;9.78;7.67;;;;;;;32.81;25.98;100224.30;1747759;81;20932;-77
2021/09/11 13:11:31;;;;;;;9.83;7.87;;;;;;;32.80;26.53;100228.95;1747574;80;21020;-77
2021/09/11 13:13:58;;;;;;;13.78;7.95;;;;;;;32.87;26.00;100225.99;1763622;79;21035;-77
2021/09/11 13:16:24;;;;;;;11.35;7.55;;;;;;;32.98;26.45;100222.98;1750234;80;20937;-76
2021/09/11 13:18:52;;;;;;;15.80;8.13;;;;;;;33.16;26.23;100220.23;1726338;80;20933;-77
2021/09/11 13:21:19;;;;;;;14.98;8.40;;;;;;;33.42;25.20;100219.70;1778463;80;22796;-77